Time;durP1;ratioP1;P1;durP2;ratioP2;P2;SDS_P1;SDS_P2;PMS_P1;PMS_P2;Temp;Humidity;BMP_temperature;BMP_pressure;BME280_temperature;BME280_humidity;BME280_pressure;Samples;Min_cycle;Max_cycle;Signal;HPM_P1;HPM_P2
2022/01/31 00:01:04;;;;;;;9.97;4.00;;;1.20;99.90;;;2.23;100.00;98571.91;5072170;28;20940;-84
2022/01/31 00:03:35;;;;;;;12.57;5.43;;;1.30;99.90;;;2.24;100.00;98555.50;5058768;28;20451;-83
2022/01/31 00:06:05;;;;;;;7.13;4.20;;;1.30;99.90;;;2.19;100.00;98538.72;5068091;28;20833;-83
2022/01/31 00:08:35;;;;;;;13.23;3.90;;;1.20;99.90;;;2.23;100.00;98524.66;5071984;28;20467;-83
2022/01/31 00:11:05;;;;;;;9.50;5.50;;;1.30;99.90;;;2.24;100.00;98524.53;5074148;28;20545;-83
2022/01/31 00:13:38;;;;;;;18.83;4.70;;;1.40;99.90;;;2.28;100.00;98515.63;5067112;28;20472;-83
2022/01/31 00:16:09;;;;;;;7.77;3.17;;;1.60;99.90;;;2.31;100.00;98506.81;5070964;28;20517;-83
2022/01/31 00:18:40;;;;;;;13.87;4.50;;;1.70;99.90;;;2.35;100.00;98508.19;5069461;28;20487;-83
2022/01/31 00:21:11;;;;;;;5.53;3.37;;;1.60;99.90;;;2.37;100.00;98501.13;5067984;28;20503;-83
2022/01/31 00:23:41;;;;;;;16.50;4.27;;;1.60;99.90;;;2.31;100.00;98474.09;5062365;28;20518;-83
2022/01/31 00:26:10;;;;;;;9.33;3.60;;;1.50;99.90;;;2.29;100.00;98462.25;5068560;28;20552;-82
2022/01/31 00:28:39;;;;;;;10.43;3.30;;;1.40;99.90;;;2.34;100.00;98440.28;5067989;28;20486;-83
2022/01/31 00:31:09;;;;;;;12.20;3.83;;;1.40;99.90;;;2.38;100.00;98440.88;5066356;28;20495;-83
2022/01/31 00:33:39;;;;;;;10.83;3.77;;;1.50;99.90;;;2.43;100.00;98442.09;5064387;28;20455;-82
2022/01/31 00:36:08;;;;;;;8.20;3.50;;;1.60;99.90;;;2.45;100.00;98422.19;5067173;28;20471;-83
2022/01/31 00:38:38;;;;;;;10.03;2.97;;;1.70;99.90;;;2.42;100.00;98406.94;5066397;28;21205;-83
2022/01/31 00:41:08;;;;;;;14.13;3.80;;;1.70;99.90;;;2.47;100.00;98391.06;5066959;28;20532;-83
2022/01/31 00:43:54;;;;;;;6.20;3.30;;;1.70;99.90;;;2.47;100.00;98360.09;5070811;28;20464;-83
2022/01/31 00:46:27;;;;;;;10.50;3.73;;;1.70;99.90;;;2.49;100.00;98335.81;5063022;28;20872;-83
2022/01/31 00:48:59;;;;;;;4.23;3.10;;;1.70;99.90;;;2.53;100.00;98332.00;5077730;28;20476;-83
2022/01/31 00:51:27;;;;;;;7.10;3.10;;;1.80;99.90;;;2.58;100.00;98334.22;5072427;28;20500;-83
2022/01/31 00:53:57;;;;;;;7.43;3.30;;;1.90;99.90;;;2.62;100.00;98330.44;5067608;28;20474;-83
2022/01/31 00:56:27;;;;;;;8.87;3.33;;;1.90;99.90;;;2.60;100.00;98323.78;5066202;28;20549;-83
2022/01/31 00:58:57;;;;;;;10.90;3.53;;;1.90;99.90;;;2.59;100.00;98314.38;5069839;28;20476;-83
2022/01/31 01:01:25;;;;;;;6.10;2.67;;;1.70;99.90;;;2.63;100.00;98297.69;5067742;28;20554;-83
2022/01/31 01:03:57;;;;;;;10.43;5.03;;;1.80;99.90;;;2.62;100.00;98281.38;5071645;28;21049;-83
2022/01/31 01:06:28;;;;;;;7.67;3.00;;;1.80;99.90;;;2.62;100.00;98270.25;5067926;28;20463;-82
2022/01/31 01:08:59;;;;;;;6.90;3.00;;;1.80;99.90;;;2.61;100.00;98250.53;5070283;28;20452;-83
2022/01/31 01:11:29;;;;;;;9.20;3.23;;;1.80;99.90;;;2.62;100.00;98249.59;5067036;28;20451;-83
2022/01/31 01:13:58;;;;;;;16.43;3.10;;;1.80;99.90;;;2.63;100.00;98234.00;5069945;28;20866;-82
2022/01/31 01:16:29;;;;;;;8.03;3.17;;;1.90;99.90;;;2.66;100.00;98222.56;5068239;28;20919;-83
2022/01/31 01:19:05;;;;;;;8.63;3.60;;;2.00;99.90;;;2.62;100.00;98205.72;5069881;28;20465;-83
2022/01/31 01:21:34;;;;;;;6.17;3.87;;;1.80;99.90;;;2.66;100.00;98189.03;5069118;28;20590;-83
2022/01/31 01:24:07;;;;;;;13.33;4.50;;;2.00;99.90;;;2.69;100.00;98170.69;5077559;28;20466;-83
2022/01/31 01:26:36;;;;;;;12.13;3.33;;;1.90;99.90;;;2.68;100.00;98180.19;5072349;28;20915;-83
2022/01/31 01:29:06;;;;;;;12.30;3.40;;;1.90;99.90;;;2.73;100.00;98187.53;5077285;28;20451;-82
2022/01/31 01:31:36;;;;;;;15.63;3.40;;;2.00;99.90;;;2.77;100.00;98188.91;5078633;28;20431;-82
2022/01/31 01:34:08;;;;;;;13.40;2.93;;;2.20;99.90;;;2.81;100.00;98198.00;5072664;28;20527;-83
2022/01/31 01:36:38;;;;;;;13.50;2.57;;;2.30;99.90;;;2.84;100.00;98177.09;5079909;28;20463;-83
2022/01/31 01:39:08;;;;;;;14.27;3.40;;;2.30;99.90;;;2.84;100.00;98165.00;5078167;28;20979;-83
2022/01/31 01:41:39;;;;;;;6.13;2.90;;;2.10;99.90;;;2.87;100.00;98163.91;5070707;28;20479;-83
2022/01/31 01:44:09;;;;;;;12.63;3.40;;;2.20;99.90;;;2.86;100.00;98142.41;5070229;28;20498;-82
2022/01/31 01:46:40;;;;;;;6.33;2.63;;;2.30;99.90;;;2.85;100.00;98142.53;5068685;28;20469;-82
2022/01/31 01:49:10;;;;;;;6.87;3.10;;;2.30;99.90;;;2.91;100.00;98136.84;5064394;28;20471;-82
2022/01/31 01:51:40;;;;;;;16.70;2.90;;;2.40;99.90;;;2.92;100.00;98121.22;5070986;28;20485;-82
2022/01/31 01:54:12;;;;;;;7.43;2.73;;;2.40;99.90;;;2.93;100.00;98124.63;5075938;28;20463;-82
2022/01/31 01:56:42;;;;;;;10.97;3.07;;;2.40;99.90;;;2.97;100.00;98102.72;5065170;28;20457;-83
2022/01/31 01:59:13;;;;;;;13.03;3.10;;;2.40;99.90;;;3.00;100.00;98081.78;5068101;28;20578;-83
2022/01/31 02:01:42;;;;;;;13.60;3.60;;;2.40;99.90;;;3.03;100.00;98064.25;5066876;28;20766;-82
2022/01/31 02:04:13;;;;;;;10.13;2.97;;;2.50;99.90;;;3.07;100.00;98061.38;5064284;28;20464;-83
2022/01/31 02:06:45;;;;;;;9.53;3.40;;;2.50;99.90;;;3.09;100.00;98044.78;5071452;28;21058;-82
2022/01/31 02:09:14;;;;;;;9.03;2.40;;;2.50;99.90;;;3.11;100.00;98027.41;5072460;28;20459;-82
2022/01/31 02:11:44;;;;;;;12.13;3.63;;;2.60;99.90;;;3.15;100.00;98009.84;5073271;28;20464;-82
2022/01/31 02:14:15;;;;;;;9.03;3.07;;;2.60;99.90;;;3.18;100.00;98006.97;5076592;28;20548;-82
2022/01/31 02:16:44;;;;;;;12.80;3.47;;;2.60;99.90;;;3.18;100.00;97984.56;5079165;28;20490;-82
2022/01/31 02:19:17;;;;;;;9.17;2.13;;;2.70;99.90;;;3.20;100.00;97974.88;5069186;28;20468;-82
2022/01/31 02:21:53;;;;;;;13.90;3.20;;;2.70;99.90;;;3.17;100.00;97975.16;5070980;28;20540;-82
2022/01/31 02:24:22;;;;;;;14.00;2.23;;;2.70;99.90;;;3.16;100.00;97978.69;5072344;28;20482;-82
2022/01/31 02:26:53;;;;;;;11.43;2.90;;;2.70;99.90;;;3.20;100.00;97974.88;5070228;28;21015;-83
2022/01/31 02:29:23;;;;;;;10.00;3.00;;;2.70;99.90;;;3.20;100.00;98002.47;5069001;28;20546;-82
2022/01/31 02:31:53;;;;;;;6.77;2.63;;;2.60;99.90;;;3.21;100.00;97986.03;5066631;28;20975;-82
2022/01/31 02:34:22;;;;;;;7.63;2.90;;;2.70;99.90;;;3.22;100.00;97988.47;5069609;28;20476;-83
2022/01/31 02:36:53;;;;;;;10.17;2.90;;;2.80;99.90;;;3.24;100.00;97983.16;5078528;28;20559;-82
2022/01/31 02:39:23;;;;;;;13.67;4.77;;;2.70;99.90;;;3.27;100.00;97981.09;5081321;28;20609;-82
2022/01/31 02:41:53;;;;;;;9.90;3.00;;;2.70;99.90;;;3.30;100.00;97987.75;5073696;28;20582;-82
2022/01/31 02:44:24;;;;;;;4.87;2.73;;;2.80;99.90;;;3.31;100.00;97966.13;5069525;28;20471;-82
2022/01/31 02:46:55;;;;;;;12.53;3.57;;;2.90;99.90;;;3.34;100.00;97963.25;5074651;28;21030;-83
2022/01/31 02:49:26;;;;;;;11.37;3.10;;;2.90;99.90;;;3.35;100.00;97957.13;5073707;28;20535;-82
2022/01/31 02:52:01;;;;;;;15.13;3.33;;;2.90;99.90;;;3.36;100.00;97951.03;5071590;28;20891;-83
2022/01/31 02:54:32;;;;;;;13.63;3.30;;;2.80;99.90;;;3.37;100.00;97953.44;5074643;28;20461;-82
2022/01/31 02:57:02;;;;;;;9.80;3.83;;;2.90;99.90;;;3.41;100.00;97952.19;5074897;28;20468;-82
2022/01/31 02:59:32;;;;;;;7.50;2.87;;;2.90;99.90;;;3.47;100.00;97949.03;5069029;28;20540;-83
2022/01/31 03:02:03;;;;;;;13.07;3.13;;;3.00;99.90;;;3.48;100.00;97940.31;5068789;28;20503;-81
2022/01/31 03:04:33;;;;;;;12.53;2.83;;;3.00;99.90;;;3.49;100.00;97926.44;5071485;28;20966;-82
2022/01/31 03:07:05;;;;;;;8.13;3.27;;;3.00;99.90;;;3.50;100.00;97922.91;5072251;28;20456;-83
2022/01/31 03:09:36;;;;;;;12.17;3.70;;;3.00;99.90;;;3.52;100.00;97897.72;5070080;28;20499;-83
2022/01/31 03:12:09;;;;;;;11.33;3.33;;;3.10;99.90;;;3.51;100.00;97898.69;5073085;28;20475;-82
2022/01/31 03:14:40;;;;;;;4.93;3.37;;;3.00;99.90;;;3.54;100.00;97882.88;5073604;28;20494;-82
2022/01/31 03:17:11;;;;;;;10.63;3.13;;;3.10;99.90;;;3.52;100.00;97874.47;5070920;28;20995;-83
2022/01/31 03:19:42;;;;;;;7.47;2.90;;;3.10;99.90;;;3.57;100.00;97868.03;5074146;28;20468;-83
2022/01/31 03:22:14;;;;;;;7.40;3.33;;;3.10;99.90;;;3.60;100.00;97880.66;5075777;28;20533;-83
2022/01/31 03:24:46;;;;;;;10.20;3.63;;;3.00;99.90;;;3.55;100.00;97869.00;5076637;28;20459;-82
2022/01/31 03:27:16;;;;;;;12.37;3.67;;;3.10;99.90;;;3.57;100.00;97858.53;5076399;28;21018;-83
2022/01/31 03:29:46;;;;;;;10.13;3.43;;;3.10;99.90;;;3.57;100.00;97848.19;5074353;28;20938;-82
2022/01/31 03:32:15;;;;;;;12.77;3.03;;;3.10;99.90;;;3.58;100.00;97849.78;5068006;28;20650;-83
2022/01/31 03:34:45;;;;;;;12.20;3.37;;;3.10;99.90;;;3.60;100.00;97845.31;5073359;28;20477;-82
2022/01/31 03:37:17;;;;;;;16.93;4.57;;;3.10;99.90;;;3.63;100.00;97832.06;5075970;28;20465;-83
2022/01/31 03:39:48;;;;;;;11.20;3.80;;;3.10;99.90;;;3.61;100.00;97820.25;5071149;28;20516;-82
2022/01/31 03:42:18;;;;;;;34.50;13.10;;;3.20;99.90;;;3.63;100.00;97818.34;5072992;28;20588;-82
2022/01/31 03:44:50;;;;;;;18.90;4.13;;;3.20;99.90;;;3.57;100.00;97795.66;5072851;28;20996;-82
2022/01/31 03:47:22;;;;;;;16.57;4.37;;;3.20;99.90;;;3.58;100.00;97785.16;5068771;28;20558;-83
2022/01/31 03:49:52;;;;;;;9.93;3.40;;;3.10;99.90;;;3.63;100.00;97769.22;5070739;28;20834;-83
2022/01/31 03:52:24;;;;;;;12.93;3.67;;;3.10;99.90;;;3.62;100.00;97762.41;5074070;28;20513;-86
2022/01/31 03:54:56;;;;;;;14.33;3.30;;;3.20;99.90;;;3.61;100.00;97763.41;5075067;28;20459;-83
2022/01/31 03:57:25;;;;;;;4.47;3.07;;;3.20;99.90;;;3.61;100.00;97768.56;5077425;28;21063;-79
2022/01/31 03:59:55;;;;;;;12.37;3.60;;;3.20;99.90;;;3.63;100.00;97759.69;5073949;28;20488;-79
2022/01/31 04:02:24;;;;;;;13.43;3.20;;;3.20;99.90;;;3.57;100.00;97749.97;5072449;28;20504;-79
2022/01/31 04:04:55;;;;;;;10.73;3.73;;;3.00;99.90;;;3.57;100.00;97729.28;5076751;28;20849;-79
2022/01/31 04:07:34;;;;;;;9.40;2.80;;;3.00;99.90;;;3.58;100.00;97724.91;5075046;28;20561;-80
2022/01/31 04:10:04;;;;;;;20.70;4.77;;;3.00;99.90;;;3.54;100.00;97703.72;5075495;28;20534;-79
2022/01/31 04:12:34;;;;;;;16.67;3.47;;;3.00;99.90;;;3.57;100.00;97708.59;5079590;28;20444;-79
2022/01/31 04:15:04;;;;;;;10.13;3.60;;;3.10;99.90;;;3.62;100.00;97705.53;5081067;28;20913;-79
2022/01/31 04:17:40;;;;;;;8.80;2.70;;;3.10;99.90;;;3.59;100.00;97704.09;5079288;28;21011;-79
2022/01/31 04:20:10;;;;;;;4.57;2.70;;;3.10;99.90;;;3.63;100.00;97686.50;5079136;28;20492;-79
2022/01/31 04:22:48;;;;;;;14.00;3.47;;;3.10;99.90;;;3.63;100.00;97683.91;5075521;28;20493;-79
2022/01/31 04:25:29;;;;;;;7.93;3.03;;;3.10;99.90;;;3.61;100.00;97675.50;5070367;28;20470;-79
2022/01/31 04:28:06;;;;;;;6.63;2.50;;;3.10;99.90;;;3.56;100.00;97675.97;5069148;28;20456;-79
2022/01/31 04:30:45;;;;;;;14.87;3.67;;;3.10;99.90;;;3.54;100.00;97668.34;5068251;28;20548;-82
2022/01/31 04:33:15;;;;;;;12.60;3.60;;;3.10;99.90;;;3.53;100.00;97664.16;5071279;28;20574;-79
2022/01/31 04:35:44;;;;;;;15.13;3.80;;;3.00;99.90;;;3.52;100.00;97659.94;5077385;28;20491;-79
2022/01/31 04:38:16;;;;;;;12.20;3.23;;;3.00;99.90;;;3.48;100.00;97643.13;5078386;28;20461;-78
2022/01/31 04:40:46;;;;;;;10.87;3.23;;;3.00;99.90;;;3.43;100.00;97637.63;5061036;28;21040;-79
2022/01/31 04:43:17;;;;;;;7.20;3.40;;;3.00;99.90;;;3.46;100.00;97654.56;5079980;28;20508;-78
2022/01/31 04:45:49;;;;;;;6.40;2.60;;;3.00;99.90;;;3.50;100.00;97651.53;5079927;28;20520;-78
2022/01/31 04:48:22;;;;;;;4.03;2.63;;;3.00;99.90;;;3.45;100.00;97632.28;5074053;28;20998;-78
2022/01/31 04:50:52;;;;;;;9.63;2.80;;;3.00;99.90;;;3.47;100.00;97630.38;5073678;28;20559;-78
2022/01/31 04:53:24;;;;;;;3.87;2.23;;;2.90;99.90;;;3.45;100.00;97629.69;5074679;28;20964;-78
2022/01/31 04:55:53;;;;;;;16.37;3.20;;;2.90;99.90;;;3.48;100.00;97619.84;5072702;28;20466;-78
2022/01/31 04:58:23;;;;;;;12.87;2.60;;;3.00;99.90;;;3.51;100.00;97627.31;5073232;28;20463;-78
2022/01/31 05:00:53;;;;;;;5.47;2.40;;;3.00;99.90;;;3.50;100.00;97617.13;5071626;28;20478;-78
2022/01/31 05:03:26;;;;;;;5.20;2.73;;;3.00;99.90;;;3.51;100.00;97616.16;5075415;28;20702;-78
2022/01/31 05:05:56;;;;;;;9.23;2.30;;;3.00;99.90;;;3.51;100.00;97614.38;5074577;28;20487;-78
2022/01/31 05:08:29;;;;;;;5.40;2.33;;;3.10;99.90;;;3.52;100.00;97602.28;5072504;28;20457;-78
2022/01/31 05:10:59;;;;;;;9.70;2.90;;;3.00;99.90;;;3.51;100.00;97596.28;5070807;28;20464;-77
2022/01/31 05:13:29;;;;;;;3.63;2.37;;;3.00;99.90;;;3.52;100.00;97602.28;5064482;28;20854;-77
2022/01/31 05:15:59;;;;;;;3.10;2.10;;;3.10;99.90;;;3.51;100.00;97593.69;5068098;28;20571;-77
2022/01/31 05:18:29;;;;;;;5.00;2.17;;;3.00;99.90;;;3.51;100.00;97585.94;5069546;28;20478;-78
2022/01/31 05:21:00;;;;;;;7.20;2.20;;;3.10;99.90;;;3.44;100.00;97590.13;5069563;28;20468;-78
2022/01/31 05:23:32;;;;;;;3.70;2.30;;;2.90;99.90;;;3.47;100.00;97589.00;5069279;28;20461;-77
2022/01/31 05:26:02;;;;;;;5.30;1.87;;;3.00;99.90;;;3.43;100.00;97591.09;5069750;28;20913;-77
2022/01/31 05:28:31;;;;;;;6.60;3.70;;;2.90;99.90;;;3.41;100.00;97579.28;5069810;28;20475;-78
2022/01/31 05:31:01;;;;;;;5.40;2.23;;;2.90;99.90;;;3.44;100.00;97590.13;5062626;28;20560;-78
2022/01/31 05:33:32;;;;;;;5.83;2.30;;;2.90;99.90;;;3.43;100.00;97605.78;5068847;28;20546;-78
2022/01/31 05:36:02;;;;;;;4.00;1.90;;;2.90;99.90;;;3.44;100.00;97594.47;5069696;28;20456;-78
2022/01/31 05:38:38;;;;;;;2.70;1.83;;;3.00;99.90;;;3.48;100.00;97594.00;5066858;28;20461;-78
2022/01/31 05:41:11;;;;;;;2.83;1.80;;;3.00;99.90;;;3.50;100.00;97597.28;5071077;28;20493;-78
2022/01/31 05:43:42;;;;;;;5.20;1.90;;;3.00;99.90;;;3.54;100.00;97592.56;5068598;28;20517;-78
2022/01/31 05:46:12;;;;;;;6.20;1.47;;;3.00;99.90;;;3.53;100.00;97589.22;5065325;28;20559;-77
2022/01/31 05:48:41;;;;;;;7.43;2.50;;;3.00;99.90;;;3.54;100.00;97600.31;5067793;28;20570;-78
2022/01/31 05:51:17;;;;;;;6.90;1.90;;;2.90;99.90;;;3.59;100.00;97602.47;5070910;28;20452;-77
2022/01/31 05:53:50;;;;;;;3.93;1.43;;;3.00;99.90;;;3.57;100.00;97596.66;5070619;28;20558;-78
2022/01/31 05:56:20;;;;;;;2.67;2.33;;;2.90;99.90;;;3.55;100.00;97591.63;5068907;28;20494;-78
2022/01/31 05:58:51;;;;;;;1.60;1.50;;;3.00;99.90;;;3.62;100.00;97600.38;5070248;28;21015;-78
2022/01/31 06:01:20;;;;;;;2.20;1.50;;;3.00;99.90;;;3.65;100.00;97601.84;5064929;28;20488;-79
2022/01/31 06:03:50;;;;;;;7.63;2.00;;;3.10;99.90;;;3.69;100.00;97610.91;5069043;28;20484;-78
2022/01/31 06:06:21;;;;;;;1.77;1.30;;;3.20;99.90;;;3.70;100.00;97604.78;5069208;28;20464;-79
2022/01/31 06:08:52;;;;;;;1.57;1.00;;;3.20;99.90;;;3.74;100.00;97588.00;5067983;28;20479;-78
2022/01/31 06:11:25;;;;;;;1.20;1.10;;;3.30;99.90;;;3.73;100.00;97578.63;5069136;28;20464;-78
2022/01/31 06:13:55;;;;;;;1.17;1.07;;;3.20;99.90;;;3.79;100.00;97583.16;5080955;28;20594;-79
2022/01/31 06:16:26;;;;;;;1.93;1.10;;;3.20;99.90;;;3.82;100.00;97590.59;5080605;28;20476;-79
2022/01/31 06:18:55;;;;;;;1.20;1.00;;;3.20;99.90;;;3.86;100.00;97581.56;5077366;28;20470;-79
2022/01/31 06:21:25;;;;;;;2.53;1.27;;;3.30;99.90;;;3.90;100.00;97570.75;5081378;28;20473;-78
2022/01/31 06:23:57;;;;;;;3.87;1.10;;;3.40;99.90;;;3.92;100.00;97579.16;5075611;28;20499;-79
2022/01/31 06:26:29;;;;;;;1.23;1.13;;;3.40;99.90;;;3.95;100.00;97584.03;5079054;28;20457;-79
2022/01/31 06:29:01;;;;;;;1.90;1.13;;;3.30;99.90;;;3.99;100.00;97574.19;5072873;28;20466;-79
2022/01/31 06:31:30;;;;;;;1.50;1.23;;;3.50;99.90;;;4.00;100.00;97575.78;5072839;28;20480;-79
2022/01/31 06:34:01;;;;;;;2.70;1.10;;;3.50;99.90;;;4.01;100.00;97577.44;5070157;28;20468;-78
2022/01/31 06:36:30;;;;;;;1.53;1.10;;;3.40;99.90;;;4.03;100.00;97591.81;5077588;28;20465;-78
2022/01/31 06:39:02;;;;;;;2.50;1.30;;;3.40;99.90;;;4.08;100.00;97583.59;5074951;28;20463;-78
2022/01/31 06:41:31;;;;;;;1.67;1.43;;;3.50;99.90;;;4.05;100.00;97576.16;5074716;28;20492;-78
2022/01/31 06:44:01;;;;;;;2.10;1.80;;;3.50;99.90;;;4.11;100.00;97575.50;5073438;28;20574;-78
2022/01/31 06:46:31;;;;;;;3.10;1.37;;;3.50;99.90;;;4.12;100.00;97578.91;5075021;28;20467;-78
2022/01/31 06:49:01;;;;;;;1.53;1.27;;;3.50;99.90;;;4.13;100.00;97570.97;5073830;28;20556;-78
2022/01/31 06:51:31;;;;;;;5.20;1.20;;;3.60;99.90;;;4.16;100.00;97573.28;5071888;28;20454;-78
2022/01/31 06:54:03;;;;;;;2.67;1.13;;;3.60;99.90;;;4.13;100.00;97570.97;5076169;28;20464;-79
2022/01/31 06:56:35;;;;;;;1.73;1.40;;;3.60;99.90;;;4.15;100.00;97574.22;5074717;28;20928;-78
2022/01/31 06:59:05;;;;;;;1.80;1.37;;;3.60;99.90;;;4.18;100.00;97588.63;5074984;28;20467;-78
2022/01/31 07:01:35;;;;;;;2.27;1.10;;;3.60;99.90;;;4.19;100.00;97565.19;5073381;28;20466;-78
2022/01/31 07:04:05;;;;;;;0.83;0.83;;;3.70;99.90;;;4.13;100.00;97576.16;5073854;28;20981;-79
2022/01/31 07:06:35;;;;;;;2.37;1.20;;;3.60;99.90;;;4.10;100.00;97581.63;5071241;28;20499;-78
2022/01/31 07:09:05;;;;;;;1.20;1.10;;;3.50;99.90;;;4.10;100.00;97584.22;5073728;28;20524;-78
2022/01/31 07:11:40;;;;;;;0.97;0.90;;;3.50;99.90;;;4.11;100.00;97572.91;5074435;28;20458;-77
2022/01/31 07:14:29;;;;;;;0.80;0.80;;;3.50;99.90;;;4.12;100.00;97573.72;5076022;28;20476;-78
2022/01/31 07:17:02;;;;;;;0.80;0.80;;;3.50;99.90;;;4.12;100.00;97569.38;5073396;28;20493;-77
2022/01/31 07:19:36;;;;;;;1.33;1.00;;;3.60;99.90;;;4.12;100.00;97568.56;5076770;28;20452;-78
2022/01/31 07:22:09;;;;;;;2.00;1.10;;;3.60;99.90;;;4.15;100.00;97582.00;5081433;28;20902;-78
2022/01/31 07:24:46;;;;;;;4.77;1.57;;;3.60;99.90;;;4.15;100.00;97576.81;5080590;28;20498;-78
2022/01/31 07:27:17;;;;;;;5.90;1.70;;;3.60;99.90;;;4.10;100.00;97563.53;5071425;28;20473;-78
2022/01/31 07:29:56;;;;;;;1.27;1.17;;;3.60;99.90;;;4.17;100.00;97566.28;5073881;28;20458;-78
2022/01/31 07:32:28;;;;;;;2.30;1.50;;;3.60;99.90;;;4.21;100.00;97573.59;5077567;28;20820;-78
2022/01/31 07:34:59;;;;;;;4.37;3.10;;;3.70;99.90;;;4.23;100.00;97576.84;5067144;28;20760;-77
2022/01/31 07:37:29;;;;;;;1.97;1.67;;;3.70;99.90;;;4.28;100.00;97564.22;5064891;28;20474;-77
2022/01/31 07:39:59;;;;;;;3.53;1.70;;;3.80;99.90;;;4.25;100.00;97580.06;5066529;28;20619;-77
2022/01/31 07:42:29;;;;;;;4.30;2.13;;;3.80;99.90;;;4.27;100.00;97572.94;5064734;28;20458;-77
2022/01/31 07:44:59;;;;;;;1.63;1.30;;;3.80;99.90;;;4.31;100.00;97570.84;5071384;28;20448;-77
2022/01/31 07:47:39;;;;;;;4.90;1.60;;;3.80;99.90;;;4.36;100.00;97563.44;5069265;28;20472;-77
2022/01/31 07:50:11;;;;;;;3.37;1.60;;;3.80;99.90;;;4.37;100.00;97568.44;5072670;28;20459;-76
2022/01/31 07:52:41;;;;;;;2.17;1.13;;;3.80;99.90;;;4.41;100.00;97564.56;5071896;28;20484;-78
2022/01/31 07:55:13;;;;;;;3.07;1.53;;;3.90;99.90;;;4.45;100.00;97560.69;5074970;28;20464;-77
2022/01/31 07:57:45;;;;;;;1.83;1.57;;;3.90;99.90;;;4.48;100.00;97556.97;5079654;28;20506;-77
2022/01/31 08:00:16;;;;;;;2.10;1.53;;;3.90;99.90;;;4.52;100.00;97566.03;5077491;28;20791;-77
2022/01/31 08:02:45;;;;;;;2.67;1.50;;;3.90;99.90;;;4.50;100.00;97550.66;5078333;28;20465;-78
2022/01/31 08:05:21;;;;;;;4.60;1.90;;;3.90;99.90;;;4.56;100.00;97546.63;5070782;28;21339;-78
2022/01/31 08:07:51;;;;;;;11.50;1.80;;;4.10;99.90;;;4.58;100.00;97557.63;5070679;28;20481;-77
2022/01/31 08:10:22;;;;;;;3.10;1.50;;;4.10;99.90;;;4.61;100.00;97557.31;5066289;28;20492;-78
2022/01/31 08:12:55;;;;;;;7.83;1.63;;;4.10;99.90;;;4.66;100.00;97559.38;5069854;28;20519;-78
2022/01/31 08:15:30;;;;;;;5.83;1.90;;;4.20;99.90;;;4.66;100.00;97556.81;5069557;28;20483;-79
2022/01/31 08:18:00;;;;;;;1.43;1.10;;;4.20;99.90;;;4.69;100.00;97556.47;5069801;28;20588;-78
2022/01/31 08:20:31;;;;;;;2.07;1.27;;;4.20;99.90;;;4.70;100.00;97553.75;5068841;28;20465;-78
2022/01/31 08:23:01;;;;;;;2.40;1.40;;;4.20;99.90;;;4.73;100.00;97563.75;5066825;28;20481;-78
2022/01/31 08:25:36;;;;;;;5.80;1.83;;;4.30;99.90;;;4.75;100.00;97546.31;5067138;28;20502;-78
2022/01/31 08:28:10;;;;;;;4.00;1.57;;;4.30;99.90;;;4.75;100.00;97537.72;5067825;28;20910;-78
2022/01/31 08:30:48;;;;;;;5.03;1.20;;;4.30;99.90;;;4.78;100.00;97552.94;5069145;28;20468;-79
2022/01/31 08:33:32;;;;;;;8.07;1.70;;;4.30;99.90;;;4.77;100.00;97544.34;5067319;28;20520;-79
2022/01/31 08:36:03;;;;;;;5.33;1.70;;;4.30;99.90;;;4.80;100.00;97544.03;5067425;28;20469;-78
2022/01/31 08:38:38;;;;;;;1.87;1.43;;;4.40;99.90;;;4.84;100.00;97532.38;5068588;28;20564;-78
2022/01/31 08:41:11;;;;;;;1.83;1.37;;;4.40;99.90;;;4.85;100.00;97535.78;5070908;28;20905;-78
2022/01/31 08:43:42;;;;;;;3.10;1.43;;;4.30;99.90;;;4.86;100.00;97540.00;5066970;28;20511;-79
2022/01/31 08:46:14;;;;;;;3.07;1.50;;;4.40;99.90;;;4.89;100.00;97529.28;5072662;28;20588;-78
2022/01/31 08:48:45;;;;;;;7.30;1.80;;;4.40;99.90;;;4.91;100.00;97519.56;5043505;28;20494;-83
2022/01/31 08:51:15;;;;;;;10.50;1.70;;;4.40;99.90;;;4.93;100.00;97515.00;5042397;28;20470;-83
2022/01/31 08:53:48;;;;;;;2.73;2.07;;;4.40;99.90;;;4.95;100.00;97505.31;5039500;28;20467;-83
2022/01/31 08:56:21;;;;;;;9.70;1.57;;;4.50;99.90;;;4.98;100.00;97516.16;5041555;28;20462;-83
2022/01/31 08:58:52;;;;;;;2.50;1.23;;;4.40;99.90;;;4.98;100.00;97515.34;5038282;28;20468;-84
2022/01/31 09:01:23;;;;;;;11.73;2.37;;;4.50;99.90;;;5.00;100.00;97518.56;5038452;28;20999;-82
2022/01/31 09:06:45;;;;;;;7.47;2.00;;;4.60;99.90;;;5.08;100.00;97510.78;5039806;28;21267;-83
2022/01/31 09:09:17;;;;;;;8.37;1.47;;;4.60;99.90;;;5.07;100.00;97499.59;5041327;28;20469;-83
2022/01/31 09:11:49;;;;;;;4.20;1.53;;;4.60;99.90;;;5.05;100.00;97521.47;5040862;28;20471;-82
2022/01/31 09:14:20;;;;;;;8.70;1.60;;;4.50;99.90;;;5.01;100.00;97517.59;5038891;28;20462;-83
2022/01/31 09:16:51;;;;;;;5.37;1.60;;;4.60;99.90;;;5.02;100.00;97521.81;5040014;28;20497;-83
2022/01/31 09:19:23;;;;;;;5.70;1.43;;;4.60;99.90;;;5.00;100.00;97518.56;5041784;28;20461;-83
2022/01/31 09:21:53;;;;;;;2.87;1.53;;;4.50;99.90;;;5.02;100.00;97521.81;5042901;28;20460;-83
2022/01/31 09:24:22;;;;;;;4.70;1.30;;;4.50;99.90;;;5.04;100.00;97525.84;5041710;28;21191;-83
2022/01/31 09:26:53;;;;;;;4.27;1.47;;;4.50;99.90;;;5.04;100.00;97530.22;5042391;28;21204;-82
2022/01/31 09:29:22;;;;;;;8.30;1.67;;;4.60;99.90;;;5.05;100.00;97537.84;5042253;28;21026;-83
2022/01/31 09:31:52;;;;;;;4.50;1.43;;;4.50;99.90;;;5.08;100.00;97523.75;5041650;28;20473;-83
2022/01/31 09:34:23;;;;;;;4.97;1.37;;;4.50;99.90;;;5.13;100.00;97533.63;5041639;28;20995;-84
2022/01/31 09:36:53;;;;;;;6.73;1.17;;;4.60;99.90;;;5.13;100.00;97518.06;5041972;28;20834;-83
2022/01/31 09:39:24;;;;;;;6.10;2.07;;;4.60;99.90;;;5.12;100.00;97530.22;5036687;28;20487;-83
2022/01/31 09:41:57;;;;;;;1.47;1.20;;;4.60;99.90;;;5.09;100.00;97520.19;5039958;28;20464;-83
2022/01/31 09:44:42;;;;;;;3.07;1.77;;;4.60;99.90;;;5.14;100.00;97525.66;5038402;28;20619;-83
2022/01/31 09:47:21;;;;;;;3.77;1.70;;;4.70;99.90;;;5.11;100.00;97528.59;5041478;28;20958;-83
2022/01/31 09:49:53;;;;;;;3.13;2.07;;;4.60;99.90;;;5.17;100.00;97533.13;5045728;28;20471;-82
2022/01/31 09:52:23;;;;;;;6.00;1.33;;;4.70;99.90;;;5.21;100.00;97528.41;5043774;28;20793;-83
2022/01/31 09:54:53;;;;;;;3.50;1.30;;;4.70;99.90;;;5.24;100.00;97526.28;5043680;28;20487;-83
2022/01/31 09:57:25;;;;;;;4.00;1.47;;;4.70;99.90;;;5.22;100.00;97553.34;5044091;28;20455;-83
2022/01/31 09:59:56;;;;;;;1.63;1.07;;;4.70;99.90;;;5.19;100.00;97541.53;5040586;28;20521;-83
2022/01/31 10:02:27;;;;;;;4.23;1.33;;;4.70;99.90;;;5.23;100.00;97539.41;5041116;28;20716;-83
2022/01/31 10:04:57;;;;;;;3.20;1.33;;;4.70;99.90;;;5.24;100.00;97513.31;5040465;28;21822;-83
2022/01/31 10:07:45;;;;;;;7.10;1.23;;;4.70;99.90;;;5.25;100.00;97533.09;5040871;28;20459;-83
2022/01/31 10:10:25;;;;;;;5.33;1.37;;;4.80;99.90;;;5.27;100.00;97530.34;5041814;28;21103;-83
2022/01/31 10:16:27;;;;;;;5.60;1.23;;;4.90;99.90;;;5.23;100.00;97548.00;5046557;28;20472;-83
2022/01/31 10:19:07;;;;;;;5.23;1.20;;;4.80;99.90;;;5.18;100.00;97545.09;5047986;28;20502;-83
2022/01/31 12:54:52;;;;;;;6.63;1.80;;;5.10;99.90;;;5.49;100.00;97561.53;5072823;28;20813;-83
2022/01/31 12:57:23;;;;;;;3.43;1.67;;;5.00;99.90;;;5.49;100.00;97577.09;5081948;28;20264;-83
2022/01/31 12:59:54;;;;;;;3.10;1.53;;;5.00;99.90;;;5.56;100.00;97583.22;5078972;28;21067;-83
2022/01/31 13:02:25;;;;;;;7.83;1.70;;;5.00;99.90;;;5.59;100.00;97572.53;5075291;28;20956;-84
2022/01/31 13:04:55;;;;;;;6.63;1.70;;;5.10;99.90;;;5.54;100.00;97577.41;5076230;28;20494;-83
2022/01/31 13:07:29;;;;;;;4.40;1.47;;;5.00;99.90;;;5.59;100.00;97558.75;5083673;28;20551;-83
2022/01/31 13:10:12;;;;;;;4.63;1.43;;;5.00;99.90;;;5.70;100.00;97560.16;5081872;28;20439;-83
2022/01/31 13:12:42;;;;;;;5.45;1.70;;;5.20;99.90;;;5.80;100.00;97571.13;5078347;28;20511;-83
2022/01/31 13:15:23;;;;;;;19.07;7.50;;;5.30;99.90;;;5.88;100.00;97558.97;5079522;28;20313;-86
2022/01/31 13:17:52;;;;;;;6.53;1.83;;;5.30;99.90;;;5.84;100.00;97577.59;5080993;28;20477;-83
2022/01/31 13:20:24;;;;;;;6.17;2.00;;;5.40;99.90;;;5.88;100.00;97579.75;5040634;28;20460;-83